Terminal Aerodrome Forecast
Issued by NWS

Home | Current Version | Previous Version | Text Only | Print | Product List | Glossary On
Versions: 1 2 3 4 5 6 7 8 9 10 11 12 13 14 15 16 17 18 19 20 21 22 23
000
FTUS46 KOTX 241738
TAFSFF
TAF
KSFF 241738Z 2418/2518 27003KT P6SM -RA BKN035 OVC045
     FM242200 20005KT 6SM -RA BR BKN025 OVC035
     FM250200 22004KT P6SM VCSH FEW018 OVC040
     FM250800 18004KT P6SM BKN080
     FM251300 21005KT P6SM FEW012 BKN040=

USA.gov is the U.S. government's official web portal to all federal, state and local government web resources and services.